Kyokuhoumaru No.12 — JL5963 — position and weather

sailwx.info

Track history (hours):
 
Tides and Currents Weather Stations Pressure Air Temp Water Temp Dewpoint Dewpoint Depression Visibility Wind Speed Wind Dir Waves Ship Positions

Kyokuhoumaru No.12

Last reported at 2014-Jul-25 23:27 UTC. Time now 2014-Jul-26 03:10 UTC.
Position N 35°02' E 139°33'.

Length 57 m.

Type: Tanker. MMSI: 431500879.

Date/timePositionNaut miles runAvg speedWind from/ knotsBaromVisibWave heightAir tempDewpointWater temp
2014-Jul-25 23:27N 35°02' E 139°33'9 9.6
2014-Jul-25 22:33N 35°07' E 139°42'1010.1
2014-Jul-25 21:33N 35°17' E 139°45'6 5.8
2014-Jul-25 20:28N 35°22' E 139°40'0 0.0
2014-Jul-25 18:22N 35°22' E 139°40'0 0.0
2014-Jul-25 17:31N 35°22' E 139°40'0 0.0
2014-Jul-25 16:28N 35°22' E 139°40'0 0.0
2014-Jul-25 15:22N 35°22' E 139°40'0 0.0
2014-Jul-25 14:28N 35°22' E 139°40'0 0.0
2014-Jul-25 13:19N 35°22' E 139°40'0 0.1
2014-Jul-25 12:31N 35°22' E 139°40'0 0.0
2014-Jul-25 11:28N 35°22' E 139°40'0 0.0
2014-Jul-25 10:22N 35°22' E 139°40'0 0.0
2014-Jul-25 09:28N 35°22' E 139°40'0 0.1
2014-Jul-25 08:10N 35°22' E 139°40'0 0.1
2014-Jul-25 07:31N 35°22' E 139°40'0 0.0
2014-Jul-25 06:31N 35°22' E 139°40'8 7.9
2014-Jul-25 05:33N 35°27' E 139°47'1010.3
2014-Jul-25 04:33N 35°35' E 139°56'7 6.3
2014-Jul-25 03:31N 35°41' E 139°57'0 0.0
2014-Jul-25 02:31N 35°41' E 139°57'0 0.0
2014-Jul-25 01:25N 35°41' E 139°57'0 0.0
2014-Jul-25 00:19N 35°41' E 139°57'0 0.0
2014-Jul-24 23:31N 35°41' E 139°57'3 2.6
2014-Jul-24 22:33N 35°39' E 139°58'4 3.8
2014-Jul-24 21:31N 35°36' E 139°55'0 0.0
2014-Jul-24 20:31N 35°36' E 139°55'0 0.0
2014-Jul-24 19:31N 35°36' E 139°55'0 0.0
2014-Jul-24 18:25N 35°36' E 139°55'0 0.0
2014-Jul-24 17:28N 35°36' E 139°55'0 0.0
2014-Jul-24 16:31N 35°36' E 139°55'0 0.0
2014-Jul-24 15:31N 35°36' E 139°55'0 0.0
2014-Jul-24 14:31N 35°36' E 139°55'0 0.1
2014-Jul-24 13:31N 35°36' E 139°55'0 0.0
2014-Jul-24 12:31N 35°36' E 139°55'0 0.0
2014-Jul-24 11:31N 35°36' E 139°55'0 0.0
2014-Jul-24 10:31N 35°36' E 139°55'0 0.0
2014-Jul-24 09:31N 35°36' E 139°55'0 0.0
2014-Jul-24 08:31N 35°36' E 139°55'0 0.0
2014-Jul-24 07:31N 35°36' E 139°55'0 0.0
2014-Jul-24 06:31N 35°36' E 139°55'0 0.0
2014-Jul-24 05:31N 35°36' E 139°55'0 0.0
2014-Jul-24 04:31N 35°36' E 139°55'0 0.0
2014-Jul-24 03:31N 35°36' E 139°55'6 6.5
2014-Jul-24 02:32N 35°30' E 139°52'10 9.9
2014-Jul-24 01:32N 35°22' E 139°45'9 8.9
2014-Jul-24 00:33N 35°13' E 139°47'9 9.3
2014-Jul-23 23:34N 35°05' E 139°42'  
Track history (hours):
 
Tides and Currents Weather Stations Pressure Air Temp Water Temp Dewpoint Dewpoint Depression Visibility Wind Speed Wind Dir Waves Ship Positions

Kyokuhoumaru No.12

Last reported at 2014-Jul-25 23:27 UTC. Time now 2014-Jul-26 03:10 UTC.
Position N 35°02' E 139°33'.

Length 57 m.

Type: Tanker. MMSI: 431500879.

Date/timePositionNaut miles runAvg speedWind from/ knotsBaromVisibWave heightAir tempDewpointWater temp
2014-Jul-25 23:27N 35°02' E 139°33'9 9.6
2014-Jul-25 22:33N 35°07' E 139°42'1010.1
2014-Jul-25 21:33N 35°17' E 139°45'6 5.8
2014-Jul-25 20:28N 35°22' E 139°40'0 0.0
2014-Jul-25 18:22N 35°22' E 139°40'0 0.0
2014-Jul-25 17:31N 35°22' E 139°40'0 0.0
2014-Jul-25 16:28N 35°22' E 139°40'0 0.0
2014-Jul-25 15:22N 35°22' E 139°40'0 0.0
2014-Jul-25 14:28N 35°22' E 139°40'0 0.0
2014-Jul-25 13:19N 35°22' E 139°40'0 0.1
2014-Jul-25 12:31N 35°22' E 139°40'0 0.0
2014-Jul-25 11:28N 35°22' E 139°40'0 0.0
2014-Jul-25 10:22N 35°22' E 139°40'0 0.0
2014-Jul-25 09:28N 35°22' E 139°40'0 0.1
2014-Jul-25 08:10N 35°22' E 139°40'0 0.1
2014-Jul-25 07:31N 35°22' E 139°40'0 0.0
2014-Jul-25 06:31N 35°22' E 139°40'8 7.9
2014-Jul-25 05:33N 35°27' E 139°47'1010.3
2014-Jul-25 04:33N 35°35' E 139°56'7 6.3
2014-Jul-25 03:31N 35°41' E 139°57'0 0.0
2014-Jul-25 02:31N 35°41' E 139°57'0 0.0
2014-Jul-25 01:25N 35°41' E 139°57'0 0.0
2014-Jul-25 00:19N 35°41' E 139°57'0 0.0
2014-Jul-24 23:31N 35°41' E 139°57'3 2.6
2014-Jul-24 22:33N 35°39' E 139°58'4 3.8
2014-Jul-24 21:31N 35°36' E 139°55'0 0.0
2014-Jul-24 20:31N 35°36' E 139°55'0 0.0
2014-Jul-24 19:31N 35°36' E 139°55'0 0.0
2014-Jul-24 18:25N 35°36' E 139°55'0 0.0
2014-Jul-24 17:28N 35°36' E 139°55'0 0.0
2014-Jul-24 16:31N 35°36' E 139°55'0 0.0
2014-Jul-24 15:31N 35°36' E 139°55'0 0.0
2014-Jul-24 14:31N 35°36' E 139°55'0 0.1
2014-Jul-24 13:31N 35°36' E 139°55'0 0.0
2014-Jul-24 12:31N 35°36' E 139°55'0 0.0
2014-Jul-24 11:31N 35°36' E 139°55'0 0.0
2014-Jul-24 10:31N 35°36' E 139°55'0 0.0
2014-Jul-24 09:31N 35°36' E 139°55'0 0.0
2014-Jul-24 08:31N 35°36' E 139°55'0 0.0
2014-Jul-24 07:31N 35°36' E 139°55'0 0.0
2014-Jul-24 06:31N 35°36' E 139°55'0 0.0
2014-Jul-24 05:31N 35°36' E 139°55'0 0.0
2014-Jul-24 04:31N 35°36' E 139°55'0 0.0
2014-Jul-24 03:31N 35°36' E 139°55'6 6.5
2014-Jul-24 02:32N 35°30' E 139°52'10 9.9
2014-Jul-24 01:32N 35°22' E 139°45'9 8.9
2014-Jul-24 00:33N 35°13' E 139°47'9 9.3
2014-Jul-23 23:34N 35°05' E 139°42'  

Dump ship's entire track history